createdAt,value
2023-05-01T00:01:27.468Z,12.10
2023-05-01T00:06:52.435Z,16.80
2023-05-01T00:12:16.616Z,9.80
2023-05-01T00:17:41.740Z,11.10
2023-05-01T00:23:07.238Z,13.00
2023-05-01T00:28:32.010Z,12.10
2023-05-01T00:33:56.793Z,15.30
2023-05-01T00:39:21.355Z,15.10
2023-05-01T00:44:45.859Z,14.40
2023-05-01T00:50:11.929Z,18.10
2023-05-01T00:55:37.327Z,13.00
2023-05-01T01:01:02.986Z,11.80
2023-05-01T01:06:49.375Z,11.00
2023-05-01T01:12:25.558Z,14.50
2023-05-01T01:18:25.679Z,11.20
2023-05-01T01:24:21.284Z,10.20
2023-05-01T01:29:48.757Z,13.00
2023-05-01T01:35:21.690Z,9.60
2023-05-01T01:40:57.429Z,12.10
2023-05-01T01:46:23.737Z,11.80
2023-05-01T01:51:50.447Z,9.50
2023-05-01T01:57:18.372Z,12.70
2023-05-01T02:02:47.382Z,11.60
2023-05-01T02:08:13.911Z,9.30
2023-05-01T02:13:41.109Z,12.10
2023-05-01T02:19:05.940Z,14.30
2023-05-01T02:24:32.290Z,9.10
2023-05-01T02:29:58.331Z,10.20
2023-05-01T02:35:23.614Z,10.40
2023-05-01T02:40:52.976Z,12.00
2023-05-01T02:46:19.503Z,9.80
2023-05-01T02:51:44.443Z,6.30
2023-05-01T02:57:10.964Z,7.60
2023-05-01T03:02:36.440Z,10.40
2023-05-01T03:08:00.835Z,8.50
2023-05-01T03:13:25.982Z,7.90
2023-05-01T03:18:51.239Z,9.00
2023-05-01T03:24:15.170Z,10.90
2023-05-01T03:29:39.517Z,9.70
2023-05-01T03:35:05.534Z,7.40
2023-05-01T03:40:29.812Z,7.70
2023-05-01T03:46:20.607Z,8.70
2023-05-01T03:51:44.666Z,8.80
2023-05-01T03:57:09.534Z,10.10
2023-05-01T04:02:34.094Z,8.10
2023-05-01T04:07:59.248Z,8.60
2023-05-01T04:13:23.986Z,9.80
2023-05-01T04:18:48.302Z,9.90
2023-05-01T04:24:12.536Z,8.70
2023-05-01T04:29:37.008Z,10.50
2023-05-01T04:35:01.570Z,8.90
2023-05-01T04:40:27.100Z,17.50
2023-05-01T04:45:51.623Z,13.50
2023-05-01T04:51:15.643Z,13.80
2023-05-01T04:56:39.518Z,14.30
2023-05-01T05:02:03.694Z,11.80
2023-05-01T05:07:28.432Z,15.70
2023-05-01T05:13:16.410Z,14.80
2023-05-01T05:18:41.547Z,13.20
2023-05-01T05:24:06.362Z,17.70
2023-05-01T05:29:30.807Z,14.40
2023-05-01T05:34:55.533Z,15.90
2023-05-01T05:40:20.148Z,17.70
2023-05-01T05:46:02.144Z,15.00
2023-05-01T05:51:28.808Z,17.10
2023-05-01T05:56:53.643Z,14.90
2023-05-01T06:02:18.091Z,11.80
2023-05-01T06:07:42.639Z,19.60
2023-05-01T06:13:13.688Z,15.30
2023-05-01T06:18:45.729Z,13.00
2023-05-01T06:24:13.674Z,14.10
2023-05-01T06:29:44.677Z,13.60
2023-05-01T06:35:09.079Z,13.40
2023-05-01T06:40:35.150Z,9.70
2023-05-01T06:45:59.372Z,15.60
2023-05-01T06:51:23.900Z,9.20
2023-05-01T06:56:49.226Z,10.50
2023-05-01T07:02:14.009Z,10.50
2023-05-01T07:07:42.316Z,9.70
2023-05-01T07:13:12.001Z,5.90
2023-05-01T07:18:40.800Z,8.20
2023-05-01T07:24:06.562Z,5.10
2023-05-01T07:29:31.355Z,8.20
2023-05-01T07:34:56.084Z,7.20
2023-05-01T07:40:20.081Z,12.10
2023-05-01T07:45:57.833Z,6.70
2023-05-01T07:51:22.394Z,5.50
2023-05-01T07:56:48.497Z,8.20
2023-05-01T08:02:18.313Z,7.90
2023-05-01T08:07:43.060Z,6.40
2023-05-01T08:13:07.292Z,8.50
2023-05-01T08:18:31.846Z,5.60
2023-05-01T08:23:59.018Z,6.50
2023-05-01T08:29:23.307Z,7.10
2023-05-01T08:34:47.925Z,4.70
2023-05-01T08:40:13.046Z,7.90
2023-05-01T08:45:38.586Z,5.40
2023-05-01T08:51:04.419Z,6.90
2023-05-01T08:56:31.499Z,8.10
2023-05-01T09:01:56.901Z,5.20
2023-05-01T09:07:22.113Z,6.70
2023-05-01T09:12:57.787Z,8.40
2023-05-01T09:18:22.273Z,4.80
2023-05-01T09:23:46.561Z,6.40
2023-05-01T09:29:10.952Z,12.80
2023-05-01T09:34:35.063Z,12.40
2023-05-01T09:40:16.861Z,10.80
2023-05-01T09:45:43.568Z,4.50
2023-05-01T09:51:37.108Z,7.10
2023-05-01T09:57:01.202Z,7.20
2023-05-01T10:02:32.772Z,6.60
2023-05-01T10:08:00.362Z,9.40
2023-05-01T10:13:24.583Z,6.30
2023-05-01T10:18:49.362Z,6.70
2023-05-01T10:24:15.643Z,5.20
2023-05-01T10:29:42.363Z,5.00
2023-05-01T10:35:12.056Z,5.50
2023-05-01T10:40:46.476Z,6.60
2023-05-01T10:46:11.642Z,6.40
2023-05-01T10:52:04.824Z,7.00
2023-05-01T10:57:42.972Z,6.20
2023-05-01T11:03:33.431Z,5.40
2023-05-01T11:08:57.828Z,4.40
2023-05-01T11:14:22.760Z,5.30
2023-05-01T11:19:48.626Z,12.60
2023-05-01T11:25:28.220Z,7.40
2023-05-01T11:30:52.431Z,6.60
2023-05-01T11:36:17.424Z,2.70
2023-05-01T11:41:41.859Z,7.30
2023-05-01T11:47:07.837Z,5.70
2023-05-01T11:52:55.276Z,4.90
2023-05-01T11:58:32.826Z,9.40
2023-05-01T12:03:57.882Z,6.50
2023-05-01T12:09:30.647Z,5.50
2023-05-01T12:14:55.212Z,6.70
2023-05-01T12:20:44.115Z,9.00
2023-05-01T12:26:28.712Z,4.50
2023-05-01T12:31:53.580Z,4.60
2023-05-01T12:37:18.034Z,5.00
2023-05-01T12:42:43.044Z,5.70
2023-05-01T12:48:16.466Z,7.00
2023-05-01T12:53:44.915Z,6.30
2023-05-01T12:59:24.811Z,5.30
2023-05-01T13:04:50.303Z,6.00
2023-05-01T13:10:15.981Z,7.40
2023-05-01T13:15:39.867Z,6.80
2023-05-01T13:21:11.801Z,4.70
2023-05-01T13:26:36.276Z,3.70
2023-05-01T13:32:01.384Z,5.60
2023-05-01T13:37:26.542Z,9.60
2023-05-01T13:42:53.149Z,7.60
2023-05-01T13:48:19.070Z,5.40
2023-05-01T13:53:43.468Z,4.80
2023-05-01T13:59:09.404Z,10.00
2023-05-01T14:04:36.175Z,7.80
2023-05-01T14:10:00.924Z,6.40
2023-05-01T14:15:25.406Z,6.70
2023-05-01T14:20:49.293Z,10.70
2023-05-01T14:26:19.056Z,9.20
2023-05-01T14:31:43.648Z,6.70
2023-05-01T14:37:15.436Z,5.80
2023-05-01T14:42:44.520Z,6.60
2023-05-01T14:48:08.851Z,6.10
2023-05-01T14:53:33.445Z,11.30
2023-05-01T14:58:57.430Z,5.30
2023-05-01T15:04:21.723Z,6.30
2023-05-01T15:09:47.044Z,5.20
2023-05-01T15:15:12.532Z,11.10
2023-05-01T15:20:38.064Z,4.70
2023-05-01T15:26:02.053Z,7.00
2023-05-01T15:31:26.560Z,8.10
2023-05-01T15:36:51.334Z,4.40
2023-05-01T15:42:16.175Z,4.90
2023-05-01T15:47:40.904Z,6.80
2023-05-01T15:53:04.800Z,5.60
2023-05-01T15:58:29.051Z,5.40
2023-05-01T16:03:53.442Z,10.40
2023-05-01T16:09:17.699Z,4.20
2023-05-01T16:14:42.712Z,6.20
2023-05-01T16:20:11.715Z,6.30
2023-05-01T16:25:35.963Z,8.20
2023-05-01T16:31:00.167Z,4.80
2023-05-01T16:36:24.367Z,7.50
2023-05-01T16:41:54.088Z,6.20
2023-05-01T16:47:19.090Z,6.10
2023-05-01T16:52:44.265Z,6.60
2023-05-01T16:58:08.237Z,6.70
2023-05-01T17:03:32.764Z,7.20
2023-05-01T17:08:56.925Z,5.90
2023-05-01T17:14:22.412Z,4.20
2023-05-01T17:19:46.991Z,10.90
2023-05-01T17:25:12.167Z,4.60
2023-05-01T17:30:36.408Z,5.40
2023-05-01T17:36:00.953Z,5.30
2023-05-01T17:41:25.074Z,4.50
2023-05-01T17:46:49.399Z,7.50
2023-05-01T17:52:14.350Z,7.50
2023-05-01T17:57:40.815Z,5.90
2023-05-01T18:03:05.249Z,6.20
2023-05-01T18:08:29.534Z,6.10
2023-05-01T18:13:53.647Z,9.70
2023-05-01T18:19:18.889Z,6.20
2023-05-01T18:24:44.589Z,7.80
2023-05-01T18:30:10.272Z,7.30
2023-05-01T18:35:34.571Z,7.70
2023-05-01T18:40:59.121Z,7.00
2023-05-01T18:46:23.605Z,8.30
2023-05-01T18:51:49.029Z,4.90
2023-05-01T18:57:14.068Z,6.30
2023-05-01T19:02:39.816Z,9.40
2023-05-01T19:08:05.557Z,9.30
2023-05-01T19:13:29.893Z,7.40
2023-05-01T19:18:54.088Z,5.70
2023-05-01T19:24:18.859Z,10.50
2023-05-01T19:29:43.597Z,6.00
2023-05-01T19:35:10.539Z,5.80
2023-05-01T19:40:34.870Z,6.20
2023-05-01T19:45:58.818Z,5.60
2023-05-01T19:51:23.281Z,6.50
2023-05-01T19:56:52.820Z,23.60
2023-05-01T20:09:37.218Z,16.10
2023-05-01T20:15:06.015Z,18.50
2023-05-01T20:20:37.874Z,17.50
2023-05-01T20:26:02.156Z,11.50
2023-05-01T20:31:27.170Z,29.30
2023-05-01T20:36:51.660Z,52.60
2023-05-01T20:42:16.382Z,31.60
2023-05-01T20:47:40.927Z,19.40
2023-05-01T20:53:05.155Z,11.80
2023-05-01T20:58:29.328Z,10.50
2023-05-01T21:03:54.324Z,10.90
2023-05-01T21:09:20.050Z,12.10
2023-05-01T21:14:45.083Z,12.20
2023-05-01T21:20:16.752Z,10.50
2023-05-01T21:25:41.447Z,11.00
2023-05-01T21:31:05.752Z,10.10
2023-05-01T21:36:30.651Z,13.70
2023-05-01T21:41:54.973Z,10.80
2023-05-01T21:47:20.346Z,10.70
2023-05-01T21:52:46.251Z,12.80
2023-05-01T21:58:11.699Z,9.10
2023-05-01T22:03:41.953Z,12.00
2023-05-01T22:09:06.883Z,11.20
2023-05-01T22:14:46.068Z,10.80
2023-05-01T22:20:11.973Z,9.90
2023-05-01T22:25:36.651Z,8.60
2023-05-01T22:31:00.719Z,10.10
2023-05-01T22:36:26.204Z,9.90
2023-05-01T22:41:51.014Z,10.90
2023-05-01T22:47:16.222Z,10.60
2023-05-01T22:52:41.168Z,9.80
2023-05-01T22:58:05.379Z,11.00
2023-05-01T23:03:31.695Z,10.80
2023-05-01T23:08:56.427Z,9.30
2023-05-01T23:14:20.980Z,11.00
2023-05-01T23:19:46.320Z,13.20
2023-05-01T23:25:14.262Z,8.70
2023-05-01T23:30:40.977Z,9.50
2023-05-01T23:36:06.963Z,9.40
2023-05-01T23:41:31.123Z,8.20
2023-05-01T23:46:55.474Z,7.80
2023-05-01T23:52:20.537Z,10.20
2023-05-01T23:57:45.229Z,6.90
